sensor_id;sensor_type;location;lat;lon;timestamp;P1;durP1;ratioP1;P2;durP2;ratioP2
51489;SDS011;57752;53.574;9.736;2023-04-07T00:01:02;25.50;;;12.32;;
51489;SDS011;57752;53.574;9.736;2023-04-07T00:06:02;26.15;;;13.27;;
51489;SDS011;57752;53.574;9.736;2023-04-07T00:11:02;24.15;;;11.57;;
51489;SDS011;57752;53.574;9.736;2023-04-07T00:16:02;22.15;;;12.02;;
51489;SDS011;57752;53.574;9.736;2023-04-07T00:21:02;22.65;;;11.93;;
51489;SDS011;57752;53.574;9.736;2023-04-07T00:26:03;22.90;;;11.32;;
51489;SDS011;57752;53.574;9.736;2023-04-07T00:31:03;23.52;;;12.70;;
51489;SDS011;57752;53.574;9.736;2023-04-07T00:36:03;24.60;;;11.57;;
51489;SDS011;57752;53.574;9.736;2023-04-07T00:41:03;21.92;;;11.75;;
51489;SDS011;57752;53.574;9.736;2023-04-07T00:46:04;23.00;;;12.68;;
51489;SDS011;57752;53.574;9.736;2023-04-07T00:51:04;22.65;;;12.82;;
51489;SDS011;57752;53.574;9.736;2023-04-07T00:56:05;24.35;;;12.55;;
51489;SDS011;57752;53.574;9.736;2023-04-07T01:06:06;22.58;;;12.68;;
51489;SDS011;57752;53.574;9.736;2023-04-07T01:11:07;22.83;;;12.25;;
51489;SDS011;57752;53.574;9.736;2023-04-07T01:16:10;20.85;;;11.95;;
51489;SDS011;57752;53.574;9.736;2023-04-07T01:21:14;23.23;;;12.63;;
51489;SDS011;57752;53.574;9.736;2023-04-07T01:26:18;22.13;;;12.05;;
51489;SDS011;57752;53.574;9.736;2023-04-07T01:31:18;23.25;;;12.23;;
51489;SDS011;57752;53.574;9.736;2023-04-07T01:36:19;23.83;;;12.45;;
51489;SDS011;57752;53.574;9.736;2023-04-07T01:41:20;25.23;;;13.02;;
51489;SDS011;57752;53.574;9.736;2023-04-07T01:46:22;21.70;;;12.27;;
51489;SDS011;57752;53.574;9.736;2023-04-07T01:51:22;21.50;;;12.40;;
51489;SDS011;57752;53.574;9.736;2023-04-07T01:56:22;21.75;;;12.00;;
51489;SDS011;57752;53.574;9.736;2023-04-07T02:01:23;23.52;;;12.30;;
51489;SDS011;57752;53.574;9.736;2023-04-07T02:06:24;20.25;;;12.00;;
51489;SDS011;57752;53.574;9.736;2023-04-07T02:11:26;23.05;;;11.75;;
51489;SDS011;57752;53.574;9.736;2023-04-07T02:16:28;22.40;;;12.93;;
51489;SDS011;57752;53.574;9.736;2023-04-07T02:21:29;21.65;;;12.55;;
51489;SDS011;57752;53.574;9.736;2023-04-07T02:26:34;23.52;;;12.07;;
51489;SDS011;57752;53.574;9.736;2023-04-07T02:31:35;21.83;;;11.68;;
51489;SDS011;57752;53.574;9.736;2023-04-07T02:36:35;22.45;;;11.93;;
51489;SDS011;57752;53.574;9.736;2023-04-07T02:41:35;19.58;;;11.80;;
51489;SDS011;57752;53.574;9.736;2023-04-07T02:46:35;21.85;;;11.68;;
51489;SDS011;57752;53.574;9.736;2023-04-07T02:51:36;22.63;;;11.77;;
51489;SDS011;57752;53.574;9.736;2023-04-07T02:56:36;20.77;;;10.93;;
51489;SDS011;57752;53.574;9.736;2023-04-07T03:01:36;20.27;;;10.95;;
51489;SDS011;57752;53.574;9.736;2023-04-07T03:06:37;21.60;;;10.93;;
51489;SDS011;57752;53.574;9.736;2023-04-07T03:11:37;20.25;;;11.40;;
51489;SDS011;57752;53.574;9.736;2023-04-07T03:16:38;21.00;;;10.93;;
51489;SDS011;57752;53.574;9.736;2023-04-07T03:21:38;17.35;;;10.25;;
51489;SDS011;57752;53.574;9.736;2023-04-07T03:26:38;18.92;;;9.98;;
51489;SDS011;57752;53.574;9.736;2023-04-07T03:31:38;17.92;;;10.10;;
51489;SDS011;57752;53.574;9.736;2023-04-07T03:36:39;17.60;;;9.60;;
51489;SDS011;57752;53.574;9.736;2023-04-07T03:41:39;18.70;;;9.75;;
51489;SDS011;57752;53.574;9.736;2023-04-07T03:46:39;20.35;;;10.45;;
51489;SDS011;57752;53.574;9.736;2023-04-07T03:51:39;17.55;;;10.25;;
51489;SDS011;57752;53.574;9.736;2023-04-07T03:56:39;20.65;;;10.40;;
51489;SDS011;57752;53.574;9.736;2023-04-07T04:01:40;17.13;;;8.48;;
51489;SDS011;57752;53.574;9.736;2023-04-07T04:06:40;19.27;;;9.43;;
51489;SDS011;57752;53.574;9.736;2023-04-07T04:11:40;19.80;;;9.45;;
51489;SDS011;57752;53.574;9.736;2023-04-07T04:16:40;42.13;;;10.35;;
51489;SDS011;57752;53.574;9.736;2023-04-07T04:21:40;17.40;;;9.00;;
51489;SDS011;57752;53.574;9.736;2023-04-07T04:26:40;16.08;;;8.75;;
51489;SDS011;57752;53.574;9.736;2023-04-07T04:31:41;17.27;;;8.93;;
51489;SDS011;57752;53.574;9.736;2023-04-07T04:36:41;17.15;;;8.73;;
51489;SDS011;57752;53.574;9.736;2023-04-07T04:41:41;19.55;;;9.23;;
51489;SDS011;57752;53.574;9.736;2023-04-07T04:46:41;16.20;;;8.50;;
51489;SDS011;57752;53.574;9.736;2023-04-07T04:51:41;17.88;;;9.20;;
51489;SDS011;57752;53.574;9.736;2023-04-07T04:56:42;18.45;;;9.00;;
51489;SDS011;57752;53.574;9.736;2023-04-07T05:01:42;16.85;;;8.20;;
51489;SDS011;57752;53.574;9.736;2023-04-07T05:06:42;19.95;;;8.95;;
51489;SDS011;57752;53.574;9.736;2023-04-07T05:11:43;19.75;;;8.27;;
51489;SDS011;57752;53.574;9.736;2023-04-07T05:16:43;17.88;;;8.82;;
51489;SDS011;57752;53.574;9.736;2023-04-07T05:21:43;20.58;;;9.00;;
51489;SDS011;57752;53.574;9.736;2023-04-07T05:26:43;16.38;;;8.25;;
51489;SDS011;57752;53.574;9.736;2023-04-07T05:31:43;17.23;;;8.68;;
51489;SDS011;57752;53.574;9.736;2023-04-07T05:36:44;16.90;;;8.80;;
51489;SDS011;57752;53.574;9.736;2023-04-07T05:41:44;16.88;;;8.77;;
51489;SDS011;57752;53.574;9.736;2023-04-07T05:46:44;16.42;;;8.70;;
51489;SDS011;57752;53.574;9.736;2023-04-07T05:51:45;17.20;;;8.32;;
51489;SDS011;57752;53.574;9.736;2023-04-07T05:56:45;18.20;;;8.48;;
51489;SDS011;57752;53.574;9.736;2023-04-07T06:01:45;17.42;;;8.65;;
51489;SDS011;57752;53.574;9.736;2023-04-07T06:06:45;17.50;;;8.30;;
51489;SDS011;57752;53.574;9.736;2023-04-07T06:11:45;18.70;;;8.77;;
51489;SDS011;57752;53.574;9.736;2023-04-07T06:16:46;16.65;;;8.50;;
51489;SDS011;57752;53.574;9.736;2023-04-07T06:21:46;17.65;;;8.35;;
51489;SDS011;57752;53.574;9.736;2023-04-07T06:26:47;17.45;;;8.60;;
51489;SDS011;57752;53.574;9.736;2023-04-07T06:31:47;16.65;;;7.78;;
51489;SDS011;57752;53.574;9.736;2023-04-07T06:36:48;15.77;;;7.47;;
51489;SDS011;57752;53.574;9.736;2023-04-07T06:41:48;15.05;;;7.32;;
51489;SDS011;57752;53.574;9.736;2023-04-07T06:46:48;17.77;;;7.47;;
51489;SDS011;57752;53.574;9.736;2023-04-07T06:51:52;18.55;;;8.05;;
51489;SDS011;57752;53.574;9.736;2023-04-07T06:56:52;15.98;;;7.78;;
51489;SDS011;57752;53.574;9.736;2023-04-07T07:01:52;16.15;;;8.30;;
51489;SDS011;57752;53.574;9.736;2023-04-07T07:06:52;14.65;;;6.93;;
51489;SDS011;57752;53.574;9.736;2023-04-07T07:11:52;17.27;;;7.70;;
51489;SDS011;57752;53.574;9.736;2023-04-07T07:16:52;16.05;;;7.50;;
51489;SDS011;57752;53.574;9.736;2023-04-07T07:21:52;14.43;;;7.13;;
51489;SDS011;57752;53.574;9.736;2023-04-07T07:26:54;17.40;;;7.18;;
51489;SDS011;57752;53.574;9.736;2023-04-07T07:31:56;19.85;;;7.75;;
51489;SDS011;57752;53.574;9.736;2023-04-07T07:36:56;14.88;;;7.18;;
51489;SDS011;57752;53.574;9.736;2023-04-07T07:41:56;17.95;;;7.15;;
51489;SDS011;57752;53.574;9.736;2023-04-07T07:46:56;13.95;;;7.00;;
51489;SDS011;57752;53.574;9.736;2023-04-07T07:51:56;16.80;;;7.70;;
51489;SDS011;57752;53.574;9.736;2023-04-07T07:56:58;16.87;;;7.50;;
51489;SDS011;57752;53.574;9.736;2023-04-07T08:01:58;19.10;;;7.18;;
51489;SDS011;57752;53.574;9.736;2023-04-07T08:06:58;16.00;;;7.75;;
51489;SDS011;57752;53.574;9.736;2023-04-07T08:11:59;14.93;;;7.15;;
51489;SDS011;57752;53.574;9.736;2023-04-07T08:17:00;15.50;;;7.32;;
51489;SDS011;57752;53.574;9.736;2023-04-07T08:22:00;14.63;;;7.22;;
51489;SDS011;57752;53.574;9.736;2023-04-07T08:27:00;17.02;;;7.20;;
51489;SDS011;57752;53.574;9.736;2023-04-07T08:32:00;16.13;;;7.63;;
51489;SDS011;57752;53.574;9.736;2023-04-07T08:37:00;16.55;;;7.07;;
51489;SDS011;57752;53.574;9.736;2023-04-07T08:42:01;15.80;;;6.88;;
51489;SDS011;57752;53.574;9.736;2023-04-07T08:47:01;14.67;;;6.73;;
51489;SDS011;57752;53.574;9.736;2023-04-07T08:52:03;14.65;;;6.88;;
51489;SDS011;57752;53.574;9.736;2023-04-07T08:57:05;16.65;;;7.43;;
51489;SDS011;57752;53.574;9.736;2023-04-07T09:02:07;13.68;;;7.15;;
51489;SDS011;57752;53.574;9.736;2023-04-07T09:07:07;17.52;;;6.90;;
51489;SDS011;57752;53.574;9.736;2023-04-07T09:12:08;17.05;;;6.85;;
51489;SDS011;57752;53.574;9.736;2023-04-07T09:17:08;15.48;;;6.60;;
51489;SDS011;57752;53.574;9.736;2023-04-07T09:22:08;15.90;;;7.07;;
51489;SDS011;57752;53.574;9.736;2023-04-07T09:32:11;14.35;;;6.60;;
51489;SDS011;57752;53.574;9.736;2023-04-07T09:37:20;13.73;;;6.70;;
51489;SDS011;57752;53.574;9.736;2023-04-07T09:42:21;14.40;;;6.82;;
51489;SDS011;57752;53.574;9.736;2023-04-07T09:47:25;15.15;;;6.47;;
51489;SDS011;57752;53.574;9.736;2023-04-07T09:57:46;14.27;;;6.03;;
51489;SDS011;57752;53.574;9.736;2023-04-07T10:02:47;13.35;;;6.63;;
51489;SDS011;57752;53.574;9.736;2023-04-07T10:07:49;16.17;;;6.87;;
51489;SDS011;57752;53.574;9.736;2023-04-07T10:12:50;13.98;;;6.80;;
51489;SDS011;57752;53.574;9.736;2023-04-07T10:17:52;16.20;;;7.22;;
51489;SDS011;57752;53.574;9.736;2023-04-07T10:22:53;17.35;;;7.57;;
51489;SDS011;57752;53.574;9.736;2023-04-07T10:28:04;13.43;;;6.72;;
51489;SDS011;57752;53.574;9.736;2023-04-07T10:33:05;15.75;;;7.50;;
51489;SDS011;57752;53.574;9.736;2023-04-07T10:43:06;14.60;;;7.65;;
51489;SDS011;57752;53.574;9.736;2023-04-07T10:48:11;13.95;;;7.07;;
51489;SDS011;57752;53.574;9.736;2023-04-07T10:53:12;14.10;;;6.72;;
51489;SDS011;57752;53.574;9.736;2023-04-07T11:03:12;13.13;;;6.10;;
51489;SDS011;57752;53.574;9.736;2023-04-07T11:08:12;12.27;;;5.82;;
51489;SDS011;57752;53.574;9.736;2023-04-07T11:13:13;13.43;;;5.80;;
51489;SDS011;57752;53.574;9.736;2023-04-07T11:18:14;13.93;;;5.55;;
51489;SDS011;57752;53.574;9.736;2023-04-07T11:23:16;15.85;;;6.43;;
51489;SDS011;57752;53.574;9.736;2023-04-07T11:28:17;13.70;;;5.78;;
51489;SDS011;57752;53.574;9.736;2023-04-07T11:33:18;15.38;;;5.40;;
51489;SDS011;57752;53.574;9.736;2023-04-07T11:38:18;14.10;;;6.45;;
51489;SDS011;57752;53.574;9.736;2023-04-07T11:43:26;13.60;;;6.32;;
51489;SDS011;57752;53.574;9.736;2023-04-07T11:48:30;13.48;;;6.03;;
51489;SDS011;57752;53.574;9.736;2023-04-07T11:53:34;13.13;;;6.18;;
51489;SDS011;57752;53.574;9.736;2023-04-07T11:58:36;13.27;;;6.82;;
51489;SDS011;57752;53.574;9.736;2023-04-07T12:03:37;13.77;;;7.15;;
51489;SDS011;57752;53.574;9.736;2023-04-07T12:08:53;15.02;;;7.43;;
51489;SDS011;57752;53.574;9.736;2023-04-07T12:13:53;14.52;;;6.82;;
51489;SDS011;57752;53.574;9.736;2023-04-07T12:18:53;16.13;;;7.38;;
51489;SDS011;57752;53.574;9.736;2023-04-07T12:23:54;13.25;;;6.50;;
51489;SDS011;57752;53.574;9.736;2023-04-07T12:28:54;15.13;;;6.38;;
51489;SDS011;57752;53.574;9.736;2023-04-07T12:33:55;13.40;;;6.00;;
51489;SDS011;57752;53.574;9.736;2023-04-07T12:38:56;12.65;;;5.32;;
51489;SDS011;57752;53.574;9.736;2023-04-07T12:43:56;12.60;;;5.50;;
51489;SDS011;57752;53.574;9.736;2023-04-07T12:48:56;13.02;;;5.97;;
51489;SDS011;57752;53.574;9.736;2023-04-07T12:53:56;12.40;;;5.47;;
51489;SDS011;57752;53.574;9.736;2023-04-07T12:58:56;13.32;;;5.35;;
51489;SDS011;57752;53.574;9.736;2023-04-07T13:03:56;12.90;;;5.68;;
51489;SDS011;57752;53.574;9.736;2023-04-07T13:08:57;12.15;;;5.22;;
51489;SDS011;57752;53.574;9.736;2023-04-07T13:13:57;11.23;;;4.93;;
51489;SDS011;57752;53.574;9.736;2023-04-07T13:18:57;12.07;;;5.40;;
51489;SDS011;57752;53.574;9.736;2023-04-07T13:23:57;11.25;;;4.82;;
51489;SDS011;57752;53.574;9.736;2023-04-07T13:28:57;12.77;;;4.80;;
51489;SDS011;57752;53.574;9.736;2023-04-07T13:33:57;11.88;;;4.75;;
51489;SDS011;57752;53.574;9.736;2023-04-07T13:38:57;12.60;;;4.55;;
51489;SDS011;57752;53.574;9.736;2023-04-07T13:43:59;14.65;;;4.82;;
51489;SDS011;57752;53.574;9.736;2023-04-07T13:48:59;14.57;;;4.90;;
51489;SDS011;57752;53.574;9.736;2023-04-07T13:54:00;11.18;;;3.75;;
51489;SDS011;57752;53.574;9.736;2023-04-07T13:59:00;10.20;;;4.10;;
51489;SDS011;57752;53.574;9.736;2023-04-07T14:04:01;10.25;;;4.10;;
51489;SDS011;57752;53.574;9.736;2023-04-07T14:09:01;10.70;;;4.05;;
51489;SDS011;57752;53.574;9.736;2023-04-07T14:14:02;9.93;;;3.92;;
51489;SDS011;57752;53.574;9.736;2023-04-07T14:19:02;11.30;;;4.82;;
51489;SDS011;57752;53.574;9.736;2023-04-07T14:24:03;10.73;;;4.10;;
51489;SDS011;57752;53.574;9.736;2023-04-07T14:29:03;13.35;;;4.57;;
51489;SDS011;57752;53.574;9.736;2023-04-07T14:34:04;11.20;;;4.30;;
51489;SDS011;57752;53.574;9.736;2023-04-07T14:39:04;11.93;;;4.25;;
51489;SDS011;57752;53.574;9.736;2023-04-07T14:44:04;12.70;;;4.55;;
51489;SDS011;57752;53.574;9.736;2023-04-07T14:49:05;13.07;;;4.70;;
51489;SDS011;57752;53.574;9.736;2023-04-07T14:54:05;12.52;;;5.10;;
51489;SDS011;57752;53.574;9.736;2023-04-07T14:59:05;11.65;;;4.97;;
51489;SDS011;57752;53.574;9.736;2023-04-07T15:04:05;12.25;;;5.30;;
51489;SDS011;57752;53.574;9.736;2023-04-07T15:09:06;12.95;;;5.00;;
51489;SDS011;57752;53.574;9.736;2023-04-07T15:14:06;11.73;;;4.50;;
51489;SDS011;57752;53.574;9.736;2023-04-07T15:19:06;12.15;;;5.32;;
51489;SDS011;57752;53.574;9.736;2023-04-07T15:24:06;11.30;;;4.97;;
51489;SDS011;57752;53.574;9.736;2023-04-07T15:29:06;14.32;;;6.20;;
51489;SDS011;57752;53.574;9.736;2023-04-07T15:34:07;12.30;;;5.53;;
51489;SDS011;57752;53.574;9.736;2023-04-07T15:39:07;12.20;;;4.68;;
51489;SDS011;57752;53.574;9.736;2023-04-07T15:44:07;10.68;;;4.63;;
51489;SDS011;57752;53.574;9.736;2023-04-07T15:49:07;14.48;;;5.13;;
51489;SDS011;57752;53.574;9.736;2023-04-07T15:54:07;13.07;;;5.32;;
51489;SDS011;57752;53.574;9.736;2023-04-07T15:59:07;13.15;;;5.57;;
51489;SDS011;57752;53.574;9.736;2023-04-07T16:04:07;13.57;;;5.65;;
51489;SDS011;57752;53.574;9.736;2023-04-07T16:09:08;13.80;;;5.63;;
51489;SDS011;57752;53.574;9.736;2023-04-07T16:14:08;15.80;;;5.85;;
51489;SDS011;57752;53.574;9.736;2023-04-07T16:19:08;13.05;;;6.32;;
51489;SDS011;57752;53.574;9.736;2023-04-07T16:24:08;13.85;;;6.57;;
51489;SDS011;57752;53.574;9.736;2023-04-07T16:29:08;12.55;;;6.00;;
51489;SDS011;57752;53.574;9.736;2023-04-07T16:34:11;14.65;;;6.18;;
51489;SDS011;57752;53.574;9.736;2023-04-07T16:39:11;14.43;;;6.30;;
51489;SDS011;57752;53.574;9.736;2023-04-07T16:44:12;16.02;;;6.97;;
51489;SDS011;57752;53.574;9.736;2023-04-07T16:49:12;16.70;;;7.63;;
51489;SDS011;57752;53.574;9.736;2023-04-07T16:54:12;14.65;;;6.70;;
51489;SDS011;57752;53.574;9.736;2023-04-07T16:59:12;17.70;;;7.03;;
51489;SDS011;57752;53.574;9.736;2023-04-07T17:04:13;15.20;;;6.90;;
51489;SDS011;57752;53.574;9.736;2023-04-07T17:09:13;13.50;;;6.45;;
51489;SDS011;57752;53.574;9.736;2023-04-07T17:14:15;13.70;;;6.30;;
51489;SDS011;57752;53.574;9.736;2023-04-07T17:19:15;13.00;;;6.15;;
51489;SDS011;57752;53.574;9.736;2023-04-07T17:24:15;12.50;;;6.00;;
51489;SDS011;57752;53.574;9.736;2023-04-07T17:29:16;14.32;;;6.05;;
51489;SDS011;57752;53.574;9.736;2023-04-07T17:34:16;13.68;;;5.30;;
51489;SDS011;57752;53.574;9.736;2023-04-07T17:39:16;12.60;;;5.63;;
51489;SDS011;57752;53.574;9.736;2023-04-07T17:44:17;12.60;;;5.45;;
51489;SDS011;57752;53.574;9.736;2023-04-07T17:49:17;13.70;;;5.57;;
51489;SDS011;57752;53.574;9.736;2023-04-07T17:54:17;12.77;;;5.75;;
51489;SDS011;57752;53.574;9.736;2023-04-07T17:59:18;13.48;;;5.60;;
51489;SDS011;57752;53.574;9.736;2023-04-07T18:04:18;12.50;;;5.32;;
51489;SDS011;57752;53.574;9.736;2023-04-07T18:09:18;15.25;;;7.35;;
51489;SDS011;57752;53.574;9.736;2023-04-07T18:14:18;17.65;;;8.25;;
51489;SDS011;57752;53.574;9.736;2023-04-07T18:19:19;21.25;;;9.30;;
51489;SDS011;57752;53.574;9.736;2023-04-07T18:24:19;17.45;;;7.97;;
51489;SDS011;57752;53.574;9.736;2023-04-07T18:29:19;19.17;;;9.48;;
51489;SDS011;57752;53.574;9.736;2023-04-07T18:34:19;16.85;;;8.63;;
51489;SDS011;57752;53.574;9.736;2023-04-07T18:39:20;20.77;;;9.17;;
51489;SDS011;57752;53.574;9.736;2023-04-07T18:44:21;20.02;;;9.23;;
51489;SDS011;57752;53.574;9.736;2023-04-07T18:49:21;21.27;;;8.57;;
51489;SDS011;57752;53.574;9.736;2023-04-07T18:54:21;19.73;;;9.38;;
51489;SDS011;57752;53.574;9.736;2023-04-07T18:59:23;19.77;;;9.65;;
51489;SDS011;57752;53.574;9.736;2023-04-07T19:04:25;19.27;;;9.37;;
51489;SDS011;57752;53.574;9.736;2023-04-07T19:09:25;23.88;;;9.98;;
51489;SDS011;57752;53.574;9.736;2023-04-07T19:14:25;23.85;;;10.00;;
51489;SDS011;57752;53.574;9.736;2023-04-07T19:19:25;21.77;;;9.85;;
51489;SDS011;57752;53.574;9.736;2023-04-07T19:24:27;23.33;;;10.20;;
51489;SDS011;57752;53.574;9.736;2023-04-07T19:29:27;24.05;;;11.20;;
51489;SDS011;57752;53.574;9.736;2023-04-07T19:34:28;27.52;;;11.60;;
51489;SDS011;57752;53.574;9.736;2023-04-07T19:39:28;24.60;;;11.82;;
51489;SDS011;57752;53.574;9.736;2023-04-07T19:44:28;24.15;;;11.45;;
51489;SDS011;57752;53.574;9.736;2023-04-07T19:49:28;25.30;;;12.07;;
51489;SDS011;57752;53.574;9.736;2023-04-07T19:54:29;27.67;;;12.07;;
51489;SDS011;57752;53.574;9.736;2023-04-07T19:59:29;26.95;;;12.02;;
51489;SDS011;57752;53.574;9.736;2023-04-07T20:04:29;25.77;;;12.77;;
51489;SDS011;57752;53.574;9.736;2023-04-07T20:09:29;29.42;;;11.65;;
51489;SDS011;57752;53.574;9.736;2023-04-07T20:14:29;28.33;;;12.18;;
51489;SDS011;57752;53.574;9.736;2023-04-07T20:19:30;26.92;;;11.80;;
51489;SDS011;57752;53.574;9.736;2023-04-07T20:24:33;23.98;;;10.43;;
51489;SDS011;57752;53.574;9.736;2023-04-07T20:29:33;24.27;;;11.23;;
51489;SDS011;57752;53.574;9.736;2023-04-07T20:34:33;22.13;;;9.00;;
51489;SDS011;57752;53.574;9.736;2023-04-07T20:39:33;20.77;;;8.85;;
51489;SDS011;57752;53.574;9.736;2023-04-07T20:44:33;19.17;;;8.23;;
51489;SDS011;57752;53.574;9.736;2023-04-07T20:49:33;18.10;;;7.75;;
51489;SDS011;57752;53.574;9.736;2023-04-07T20:54:35;17.50;;;7.97;;
51489;SDS011;57752;53.574;9.736;2023-04-07T20:59:35;16.05;;;7.43;;
51489;SDS011;57752;53.574;9.736;2023-04-07T21:04:35;18.35;;;7.63;;
51489;SDS011;57752;53.574;9.736;2023-04-07T21:09:36;18.00;;;8.20;;
51489;SDS011;57752;53.574;9.736;2023-04-07T21:14:36;18.77;;;7.75;;
51489;SDS011;57752;53.574;9.736;2023-04-07T21:19:36;20.23;;;8.88;;
51489;SDS011;57752;53.574;9.736;2023-04-07T21:24:37;18.70;;;8.98;;
51489;SDS011;57752;53.574;9.736;2023-04-07T21:29:37;20.20;;;9.77;;
51489;SDS011;57752;53.574;9.736;2023-04-07T21:34:41;23.20;;;9.85;;
51489;SDS011;57752;53.574;9.736;2023-04-07T21:39:41;23.35;;;9.65;;
51489;SDS011;57752;53.574;9.736;2023-04-07T21:44:41;22.63;;;10.27;;
51489;SDS011;57752;53.574;9.736;2023-04-07T21:49:41;21.25;;;9.90;;
51489;SDS011;57752;53.574;9.736;2023-04-07T21:54:41;23.65;;;11.13;;
51489;SDS011;57752;53.574;9.736;2023-04-07T21:59:42;24.00;;;10.55;;
51489;SDS011;57752;53.574;9.736;2023-04-07T22:04:42;25.08;;;10.90;;
51489;SDS011;57752;53.574;9.736;2023-04-07T22:09:42;24.98;;;12.18;;
51489;SDS011;57752;53.574;9.736;2023-04-07T22:14:43;28.23;;;12.68;;
51489;SDS011;57752;53.574;9.736;2023-04-07T22:19:44;29.33;;;12.68;;
51489;SDS011;57752;53.574;9.736;2023-04-07T22:24:44;26.27;;;12.52;;
51489;SDS011;57752;53.574;9.736;2023-04-07T22:29:44;30.45;;;13.57;;
51489;SDS011;57752;53.574;9.736;2023-04-07T22:34:44;27.23;;;12.05;;
51489;SDS011;57752;53.574;9.736;2023-04-07T22:39:45;34.80;;;14.45;;
51489;SDS011;57752;53.574;9.736;2023-04-07T22:44:45;29.98;;;13.57;;
51489;SDS011;57752;53.574;9.736;2023-04-07T22:49:46;32.17;;;13.60;;
51489;SDS011;57752;53.574;9.736;2023-04-07T22:54:46;29.50;;;13.07;;
51489;SDS011;57752;53.574;9.736;2023-04-07T22:59:46;29.30;;;12.70;;
51489;SDS011;57752;53.574;9.736;2023-04-07T23:04:46;30.65;;;13.05;;
51489;SDS011;57752;53.574;9.736;2023-04-07T23:09:47;28.23;;;13.13;;
51489;SDS011;57752;53.574;9.736;2023-04-07T23:14:47;28.35;;;13.10;;
51489;SDS011;57752;53.574;9.736;2023-04-07T23:19:47;27.58;;;13.57;;
51489;SDS011;57752;53.574;9.736;2023-04-07T23:24:48;29.40;;;13.00;;
51489;SDS011;57752;53.574;9.736;2023-04-07T23:29:48;32.80;;;13.73;;
51489;SDS011;57752;53.574;9.736;2023-04-07T23:34:49;34.60;;;13.82;;
51489;SDS011;57752;53.574;9.736;2023-04-07T23:39:49;32.63;;;14.27;;
51489;SDS011;57752;53.574;9.736;2023-04-07T23:44:50;31.70;;;13.10;;
51489;SDS011;57752;53.574;9.736;2023-04-07T23:49:50;30.67;;;13.07;;
51489;SDS011;57752;53.574;9.736;2023-04-07T23:54:50;31.23;;;12.98;;
51489;SDS011;57752;53.574;9.736;2023-04-07T23:59:51;27.60;;;12.10;;
